Aérodrome :
LOGIN :

S'inscrire | Disclaimer

   EN    FR    IT 

 










Légende :    VFR   VFR Marginal   IFR   IFR Intensif   IFR Très Intensif
Visi : 
Plafond : 
>= 8 km
>= 3000ft
5 à 8 km
1000 à 3000 ft
1500m à 5 km
500 à 1000 ft
800 à 1500m
200 à 500 ft
< 800m
< 200 ft
Symboles :   Orages  Brouillard  Fortes neiges  Fortes précipitations  Vent > 20 kt
SIGMETs :   Divers  Orages  Givrage  Turbulence  Onde Orograph.  Cendres Volcan.







- Altitude de l'aérodrome : 1504 ft
- Code IATA : PNA


LEPP - Noain Pamplona

DERNIER METAR :
  • 181500Z 35017KT 320V020 9999 SCT033 SCT050 08/03 Q1026

METARs EXPIRÉS :
  • 181430Z 31015KT 9999 SCT045 SCT055 08/04 Q1026
  • 181400Z 32014KT 290V360 9999 SCT045 SCT055 11/03 Q1026
  • 181330Z 31011KT 280V350 9999 SCT035 SCT045 10/03 Q1026
  • 181300Z 31014KT 280V340 9999 SCT035 SCT045 08/04 Q1027
  • 181230Z 31009KT 260V340 9999 SCT036 09/03 Q1027

TAF TAF LEPP
Valide du 18 à 15h jusqu'au 19 à 15h UTC


181400Z 1815/1915 34008KT 9999 SCT045 TX10/1915Z TN04/1907Z
PROB30
TEMPO 1815/1818 RA
TEMPO 1815/1820 33018KT
TEMPO 1900/1909 3000 RA BKN010
PROB30
TEMPO 1909/1915 RA
Pas de NOTAMs connus pour ce terrain.



MET'MAP, la Météo Aéronautique d'un coup d'oeil ! - Copyright ORBIFLY Décembre 2007 - Disclaimer

ORBIFLY MET'MAP TEAM :

Programmation & Développement : Alexandra Zaïnal
Conception & Développement : Baudouin d'Aumeries
Co-Programmation & Développement : Marc-Olivier Méhu
Soutien technique & logistique : Manuel Goepfert

Contact : metmap@orbifly.com




SOURCES & CREDITS :

   NOAA